Terminal Aerodrome Forecast
Issued by NWS Wilmington, OH

Home | Current Version | Previous Version | Text Only | Print | Product List | Glossary On
Versions: 1 2 3 4 5 6 7 8 9 10 11 12 13 14 15 16 17 18
000
FTUS41 KILN 230540
TAFILN
TAF
KILN 230540Z 2306/2406 03010KT P6SM VCSH OVC090
     FM230900 03010KT 5SM -SHRA BR OVC025
     FM231200 01010KT 5SM -SHRA BR OVC008
     FM231900 01010KT 5SM BR VCSH OVC010
     FM240000 34007KT P6SM OVC005=

USA.gov is the U.S. government's official web portal to all federal, state and local government web resources and services.